map of MNC home
MNC - Airport
Location
City:  Nacala, Nampula, Mozambique
Name:Nacala Airport
ICAO:FQNC
IATA:MNC

Details
Type:Airport (Aerodrome, Airfield)
Use:Military
Latitude:1429'18"S (-14.488232)
Longitude:4042'44"E (40.712250)
Datum:WGS 1984
Elevation:410 ft (125 m)
Variation:8.20W (WMM2015 magnetic declination)
-0.03 annual change
Runways:1
Longest:8202 × 148 ft (2500 × 45 m), paved

Time
Time Zone:UTC+2
Local Time:

Weather
TAF:FQNC 201000Z 2012/2112 27010KT 9999 BKN020 FEW025CB PROB40
TEMPO 2012/2018 5000 -TSRA SCT010 BKN018 FEW022CB
BECMG 2018/2020 VRB03KT
BECMG 2100/2102 24012KT TX33/2013Z TN23/2103Z

Related Locations
Nearby:
Farthest:ITO: 11345 mi / 18258 km
Hilo [Hilo Intl], Hawaii, HI, US

Find:

   beyond  
but within

Other Information
Maps:
NOTAMs:
Links:
Sources:

  
  • flag of Mozambique
  

Sectional Chart

Flight Planning
at skyvector.com

Satellite Image

Google Maps Satellite view

 

Copyright © 2004-2019 Karl L. Swartz. All rights reserved.
The Great Circle Mapper name and logo are trademarks of the Great Circle Mapper.
All other trademarks mentioned herein belong to their respective owners.
Please see credits for attibutions and further copyright information.

  Follow gcmap on Facebook Follow gcmap on Twitter Follow gcmap on Google+ GCmap on LinkedIn

hCard Microformat

Geo Microformat